Аэропорт: Усть-Каменогорск. Усть-Каменогорск

ICAO: UASK

METAR:
2019-07-23 18:00:00
UASK 231800Z 14001MPS 4000 BR SCT030 BKN116 18/17 Q1004 R30/190060 TEMPO 2000 BR SCT004 RMK QFE728/0971
METAR:
Информация по данной станции не доступна